Time;durP1;ratioP1;P1;durP2;ratioP2;P2;SDS_P1;SDS_P2;PMS_P1;PMS_P2;Temp;Humidity;BMP_temperature;BMP_pressure;BME280_temperature;BME280_humidity;BME280_pressure;Samples;Min_cycle;Max_cycle;Signal;HPM_P1;HPM_P2
2020/12/23 00:06:00;;;;;;;16.12;7.53;;;;;;;6.64;100.00;98995.03;4330791;80;28553;-80
2020/12/23 00:12:03;;;;;;;16.50;8.48;;;;;;;6.70;100.00;98990.17;4342220;81;28582;-80
2020/12/23 00:18:05;;;;;;;15.00;7.58;;;;;;;6.78;100.00;98970.46;4303341;81;28631;-80
2020/12/23 00:24:07;;;;;;;16.37;7.00;;;;;;;6.74;100.00;98979.09;4310814;81;28558;-83
2020/12/23 00:30:10;;;;;;;12.70;6.78;;;;;;;6.94;100.00;98991.92;4302195;80;28622;-83
2020/12/23 00:36:14;;;;;;;12.15;6.40;;;;;;;6.98;100.00;99000.34;4289995;80;28589;-81
2020/12/23 00:42:21;;;;;;;13.53;6.37;;;;;;;7.02;100.00;99012.75;4310925;80;28642;-81
2020/12/23 00:48:23;;;;;;;10.70;5.62;;;;;;;6.93;100.00;99018.34;4283030;82;28550;-81
2020/12/23 00:54:25;;;;;;;16.25;7.87;;;;;;;7.03;100.00;99029.93;4289653;80;28550;-83
2020/12/23 01:00:28;;;;;;;13.53;6.67;;;;;;;7.11;100.00;99044.92;4289460;80;28554;-83
2020/12/23 01:06:30;;;;;;;13.40;6.72;;;;;;;7.17;100.00;99060.15;4332098;80;28548;-83
2020/12/23 01:12:32;;;;;;;12.33;6.35;;;;;;;7.13;100.00;99048.73;4331092;80;28632;-83
2020/12/23 01:18:35;;;;;;;13.58;6.53;;;;;;;7.10;100.00;99045.95;4294191;80;28574;-83
2020/12/23 01:24:37;;;;;;;14.98;7.20;;;;;;;6.97;100.00;99040.11;4294181;80;28610;-82
2020/12/23 01:30:39;;;;;;;13.25;7.05;;;;;;;6.89;100.00;99042.48;4289475;80;28595;-83
2020/12/23 01:36:41;;;;;;;12.45;6.08;;;;;;;6.83;100.00;99030.77;4310899;82;28588;-83
2020/12/23 01:42:43;;;;;;;11.20;5.53;;;;;;;6.59;100.00;99034.88;4324411;80;28580;-84
2020/12/23 01:48:46;;;;;;;10.98;5.78;;;;;;;6.68;100.00;99012.28;4331500;80;28559;-83
2020/12/23 01:54:49;;;;;;;10.45;5.83;;;;;;;6.77;100.00;99018.75;4326303;80;28607;-83
2020/12/23 02:00:51;;;;;;;11.55;5.97;;;;;;;6.81;100.00;99021.31;4337933;82;28580;-82
2020/12/23 02:06:55;;;;;;;11.83;6.65;;;;;;;6.87;100.00;99017.82;4307995;81;28582;-83
2020/12/23 02:12:57;;;;;;;10.98;5.30;;;;;;;6.84;100.00;99026.27;4326050;82;28646;-82
2020/12/23 02:18:59;;;;;;;13.95;7.10;;;;;;;6.91;100.00;99026.25;4179931;83;28639;-82
2020/12/23 02:25:01;;;;;;;11.80;6.20;;;;;;;7.09;100.00;99036.30;4181345;84;28601;-82
2020/12/23 02:31:04;;;;;;;16.85;8.50;;;;;;;6.96;100.00;99025.10;4212000;84;28591;-82
2020/12/23 02:37:09;;;;;;;16.87;8.70;;;;;;;6.96;100.00;99014.41;4198302;84;28644;-81
2020/12/23 02:43:11;;;;;;;17.65;9.33;;;;;;;6.91;100.00;99027.59;4201850;84;28583;-80
2020/12/23 02:49:13;;;;;;;16.07;8.95;;;;;;;7.01;100.00;99024.48;4194041;84;28592;-81
2020/12/23 02:55:15;;;;;;;17.62;8.95;;;;;;;7.04;100.00;99042.80;4198337;83;28542;-85
2020/12/23 03:01:18;;;;;;;18.17;9.78;;;;;;;7.19;100.00;99029.20;4170486;83;28652;-84
2020/12/23 03:07:20;;;;;;;18.35;8.63;;;;;;;7.16;100.00;99022.91;4187093;84;28600;-84
2020/12/23 03:13:22;;;;;;;15.58;8.50;;;;;;;7.19;100.00;99024.66;4167078;84;28676;-82
2020/12/23 03:19:24;;;;;;;18.95;9.35;;;;;;;7.07;100.00;99012.97;4167114;84;28603;-83
2020/12/23 03:25:26;;;;;;;16.93;8.85;;;;;;;7.14;100.00;99024.48;4167156;84;28579;-84
2020/12/23 03:31:29;;;;;;;15.78;8.78;;;;;;;7.28;100.00;99022.56;4168475;83;28600;-82
2020/12/23 03:37:31;;;;;;;15.08;7.78;;;;;;;7.18;100.00;99016.83;4167608;84;28608;-83
2020/12/23 03:43:33;;;;;;;18.50;8.33;;;;;;;7.08;100.00;99023.96;4216814;84;28621;-82
2020/12/23 03:49:35;;;;;;;17.02;8.80;;;;;;;7.26;100.00;99044.69;4190274;83;28639;-82
2020/12/23 03:55:37;;;;;;;18.95;8.23;;;;;;;7.34;100.00;99042.30;4185035;84;28553;-83
2020/12/23 04:01:39;;;;;;;15.23;7.03;;;;;;;7.46;100.00;99023.76;4185771;84;28587;-84
2020/12/23 04:07:42;;;;;;;13.55;7.50;;;;;;;7.35;100.00;99014.02;4204034;84;28640;-85
2020/12/23 04:13:44;;;;;;;13.50;6.95;;;;;;;7.28;100.00;99017.22;4178293;84;28623;-83
2020/12/23 04:19:46;;;;;;;15.38;7.75;;;;;;;7.36;100.00;99025.02;4214304;84;28649;-84
2020/12/23 04:25:48;;;;;;;14.25;8.05;;;;;;;7.37;100.00;99041.37;4212783;84;28635;-83
2020/12/23 04:31:50;;;;;;;14.90;7.58;;;;;;;7.38;100.00;99029.64;4193179;83;28577;-84
2020/12/23 04:37:52;;;;;;;14.30;7.50;;;;;;;7.20;100.00;99027.63;4229958;82;28600;-83
2020/12/23 04:43:55;;;;;;;12.00;6.72;;;;;;;7.07;100.00;99020.98;4189868;84;28620;-82
2020/12/23 04:49:57;;;;;;;13.80;7.20;;;;;;;7.21;100.00;99039.97;4193564;84;28626;-81
2020/12/23 04:56:00;;;;;;;14.10;7.72;;;;;;;7.17;100.00;99041.93;4221456;84;28606;-82
2020/12/23 05:02:02;;;;;;;12.68;8.15;;;;;;;7.04;100.00;99037.45;4188523;84;28620;-82
2020/12/23 05:08:04;;;;;;;12.13;8.00;;;;;;;7.00;100.00;99029.02;4193610;82;28580;-82
2020/12/23 05:14:08;;;;;;;15.60;8.45;;;;;;;6.95;100.00;99029.64;4188103;84;28565;-82
2020/12/23 05:20:11;;;;;;;13.38;8.40;;;;;;;7.16;100.00;99034.94;4206530;84;28617;-83
2020/12/23 05:26:15;;;;;;;14.83;8.63;;;;;;;7.14;100.00;99023.14;4261216;83;28951;-83
2020/12/23 05:32:18;;;;;;;17.40;9.58;;;;;;;7.16;100.00;99021.08;4201785;84;28658;-82
2020/12/23 05:38:21;;;;;;;15.90;8.30;;;;;;;7.21;100.00;99027.94;4305489;81;28614;-82
2020/12/23 05:44:23;;;;;;;14.53;8.30;;;;;;;7.22;100.00;99024.23;4327543;81;28584;-82
2020/12/23 05:50:26;;;;;;;13.70;7.67;;;;;;;7.29;100.00;99031.42;4304292;81;28590;-82
2020/12/23 05:56:32;;;;;;;14.83;9.10;;;;;;;7.13;100.00;99029.48;4310192;81;28629;-83
2020/12/23 06:02:39;;;;;;;14.53;9.15;;;;;;;7.25;100.00;99029.68;4290372;81;28599;-84
2020/12/23 06:08:41;;;;;;;17.15;9.45;;;;;;;7.10;100.00;99021.39;4335373;81;28536;-83
2020/12/23 06:15:00;;;;;;;15.58;9.63;;;;;;;7.00;100.00;99018.33;4328299;81;28546;-85
2020/12/23 06:21:06;;;;;;;18.05;10.00;;;;;;;7.06;100.00;99009.98;4354430;81;28655;-85
2020/12/23 06:27:10;;;;;;;15.60;9.15;;;;;;;6.89;100.00;99033.13;4368238;81;28589;-85
2020/12/23 06:33:12;;;;;;;18.27;10.48;;;;;;;6.95;100.00;99012.27;4305718;81;28571;-83
2020/12/23 06:39:30;;;;;;;21.00;11.65;;;;;;;6.94;100.00;99029.84;4320659;81;28713;-82
2020/12/23 06:45:39;;;;;;;20.25;12.00;;;;;;;6.94;100.00;99034.69;4264277;81;28561;-82
2020/12/23 06:51:41;;;;;;;19.37;11.38;;;;;;;6.86;100.00;99038.90;4330003;81;28540;-82
2020/12/23 06:57:46;;;;;;;18.20;10.50;;;;;;;7.05;100.00;99038.56;4344613;81;28551;-84
2020/12/23 07:03:48;;;;;;;15.53;9.83;;;;;;;7.01;100.00;99037.84;4344332;81;33053;-84
2020/12/23 07:09:53;;;;;;;17.42;10.80;;;;;;;7.00;100.00;99054.91;4343634;81;28575;-81
2020/12/23 07:16:00;;;;;;;20.95;11.78;;;;;;;7.02;100.00;99059.53;4323042;81;28583;-80
2020/12/23 07:22:12;;;;;;;19.98;11.15;;;;;;;6.95;100.00;99065.73;4327728;81;28536;-82
2020/12/23 07:28:20;;;;;;;16.73;10.32;;;;;;;7.00;100.00;99063.77;4347551;81;28561;-81
2020/12/23 07:34:30;;;;;;;17.52;9.98;;;;;;;6.93;100.00;99064.28;4308029;81;28582;-81
2020/12/23 07:40:34;;;;;;;19.60;11.20;;;;;;;6.88;100.00;99072.91;4334566;81;28550;-80
2020/12/23 07:46:36;;;;;;;19.27;11.68;;;;;;;7.03;100.00;99073.20;4326192;81;28598;-82
2020/12/23 07:52:40;;;;;;;17.02;10.43;;;;;;;6.86;100.00;99060.28;4311402;81;28545;-82
2020/12/23 07:58:43;;;;;;;18.48;11.10;;;;;;;7.06;100.00;99047.42;4319081;81;28560;-82
2020/12/23 08:04:46;;;;;;;18.40;10.53;;;;;;;7.33;100.00;99053.53;4333742;81;28567;-80
2020/12/23 08:10:48;;;;;;;20.72;12.30;;;;;;;7.38;100.00;99056.92;4320711;81;28618;-79
2020/12/23 08:16:59;;;;;;;22.30;12.78;;;;;;;7.47;100.00;99060.17;4332372;81;28555;-81
2020/12/23 08:23:02;;;;;;;21.12;11.88;;;;;;;7.57;100.00;99055.20;4322051;81;28563;-81
2020/12/23 08:29:04;;;;;;;18.80;10.60;;;;;;;7.78;100.00;99066.16;4317494;81;28590;-78
2020/12/23 08:35:07;;;;;;;17.42;10.58;;;;;;;7.83;100.00;99063.34;4325754;81;28594;-80
2020/12/23 08:41:14;;;;;;;14.23;9.45;;;;;;;7.92;100.00;99064.75;4312407;81;28586;-84
2020/12/23 08:47:28;;;;;;;17.23;9.98;;;;;;;7.83;100.00;99062.02;4188017;84;28584;-86
2020/12/23 08:53:37;;;;;;;16.15;10.18;;;;;;;7.87;100.00;99077.44;4244120;84;28579;-86
2020/12/23 08:59:40;;;;;;;14.38;8.70;;;;;;;7.77;100.00;99056.99;4196224;84;28598;-79
2020/12/23 09:05:44;;;;;;;14.43;8.40;;;;;;;7.75;100.00;99049.70;4329322;81;28553;-81
2020/12/23 09:11:52;;;;;;;14.65;9.05;;;;;;;7.89;100.00;99048.59;4304873;81;28558;-84
2020/12/23 09:18:10;;;;;;;14.58;8.68;;;;;;;8.04;100.00;99063.58;4328835;81;28596;-82
2020/12/23 09:24:12;;;;;;;11.15;7.75;;;;;;;7.84;100.00;99060.97;4326659;81;28610;-81
2020/12/23 09:30:37;;;;;;;13.65;8.10;;;;;;;8.03;100.00;99051.23;4346889;81;28568;-80
2020/12/23 09:36:39;;;;;;;11.83;7.40;;;;;;;8.02;100.00;99039.68;4304766;82;28622;-79
2020/12/23 09:42:43;;;;;;;12.60;7.92;;;;;;;8.02;100.00;99039.68;4303838;81;28571;-88
2020/12/23 09:48:45;;;;;;;12.23;8.18;;;;;;;8.11;100.00;99041.58;4306092;83;28568;-84
2020/12/23 09:54:47;;;;;;;14.85;8.55;;;;;;;8.38;100.00;99032.05;4305322;81;28571;-90
2020/12/23 10:00:51;;;;;;;13.50;8.35;;;;;;;8.34;100.00;99021.48;4305559;81;28601;-87
2020/12/23 10:06:53;;;;;;;17.35;9.18;;;;;;;8.46;100.00;99019.73;4305233;83;28567;-86
2020/12/23 10:12:57;;;;;;;14.10;8.93;;;;;;;8.49;100.00;99003.75;4302146;83;28627;-86
2020/12/23 10:19:00;;;;;;;14.33;9.85;;;;;;;8.51;100.00;99003.03;4305249;83;28618;-86
2020/12/23 10:25:05;;;;;;;15.50;9.23;;;;;;;8.72;100.00;99012.53;4305347;83;28591;-88
2020/12/23 10:31:07;;;;;;;16.97;10.83;;;;;;;8.83;100.00;99001.63;4328995;81;28620;-94
2020/12/23 10:37:10;;;;;;;18.92;10.45;;;;;;;8.65;100.00;99003.22;4369551;81;28632;-93
2020/12/23 10:43:14;;;;;;;15.88;10.10;;;;;;;8.75;100.00;98993.86;4330657;81;28560;-86
2020/12/23 10:49:16;;;;;;;15.78;9.85;;;;;;;8.69;100.00;98975.45;4287553;83;28612;-86
2020/12/23 10:55:18;;;;;;;15.03;9.63;;;;;;;8.76;100.00;98974.88;4318762;82;28552;-93
2020/12/23 11:01:21;;;;;;;15.32;9.83;;;;;;;8.74;100.00;98990.34;4299853;82;28627;-88
2020/12/23 11:07:23;;;;;;;16.87;9.70;;;;;;;8.75;100.00;98981.29;4301321;82;28622;-87
2020/12/23 11:13:25;;;;;;;16.15;9.35;;;;;;;8.70;100.00;98983.80;4302769;81;28583;-86
2020/12/23 11:19:27;;;;;;;14.73;9.25;;;;;;;8.83;100.00;98971.30;4322010;82;28612;-88
2020/12/23 11:25:30;;;;;;;15.45;10.23;;;;;;;8.95;100.00;98990.17;4306592;82;28568;-86
2020/12/23 11:31:33;;;;;;;17.35;11.12;;;;;;;8.96;100.00;98977.89;4307254;82;28548;-89
2020/12/23 11:37:36;;;;;;;17.30;10.90;;;;;;;8.98;100.00;98969.61;4312425;81;28598;-89
2020/12/23 11:43:38;;;;;;;18.02;10.63;;;;;;;9.02;100.00;98978.33;4318657;81;28721;-89
2020/12/23 11:49:41;;;;;;;15.55;9.15;;;;;;;9.04;100.00;98966.05;4325540;81;28592;-88
2020/12/23 11:55:44;;;;;;;15.70;8.95;;;;;;;9.19;100.00;98962.46;4314796;81;28578;-91
2020/12/23 12:02:22;;;;;;;15.28;9.63;;;;;;;9.12;100.00;98946.98;4343585;81;28657;-85
2020/12/23 12:08:34;;;;;;;17.20;10.30;;;;;;;9.13;100.00;98938.40;4352796;81;28567;-89
2020/12/23 12:14:36;;;;;;;14.55;8.80;;;;;;;9.13;100.00;98953.98;4358536;81;28983;-87
2020/12/23 12:20:39;;;;;;;10.88;7.15;;;;;;;9.18;100.00;98952.78;4347817;81;28587;-88
2020/12/23 12:26:41;;;;;;;12.98;7.15;;;;;;;9.17;100.00;98953.83;4316461;81;28634;-88
2020/12/23 12:32:45;;;;;;;12.80;7.08;;;;;;;9.28;100.00;98940.70;4329503;80;28575;-88
2020/12/23 12:38:47;;;;;;;13.68;7.92;;;;;;;9.13;100.00;98951.81;4329893;80;28645;-85
2020/12/23 12:44:50;;;;;;;14.53;9.95;;;;;;;9.11;100.00;98944.01;4322005;81;28563;-86
2020/12/23 12:50:54;;;;;;;16.85;9.98;;;;;;;9.12;100.00;98941.63;4317379;81;28643;-82
2020/12/23 12:56:56;;;;;;;18.35;10.95;;;;;;;8.91;100.00;98953.09;4333188;81;28661;-82
2020/12/23 13:02:59;;;;;;;16.90;11.00;;;;;;;8.86;100.00;98964.18;4168808;84;28562;-83
2020/12/23 13:09:06;;;;;;;19.37;11.40;;;;;;;8.84;100.00;98968.92;4178130;84;28559;-82
2020/12/23 13:15:08;;;;;;;18.32;11.08;;;;;;;8.88;100.00;98965.58;4196667;82;28671;-85
2020/12/23 13:21:12;;;;;;;19.02;11.93;;;;;;;8.89;100.00;98973.91;4261072;83;28553;-83
2020/12/23 13:27:14;;;;;;;19.10;11.45;;;;;;;8.88;100.00;98983.54;4254448;83;28557;-81
2020/12/23 13:33:16;;;;;;;17.87;10.48;;;;;;;8.89;100.00;98991.34;4236093;83;28563;-81
2020/12/23 13:39:19;;;;;;;17.42;10.48;;;;;;;9.01;100.00;98985.27;4258706;82;28678;-82
2020/12/23 13:45:22;;;;;;;18.95;11.70;;;;;;;8.90;100.00;98983.62;4269082;82;28552;-83
2020/12/23 13:51:25;;;;;;;20.10;11.70;;;;;;;8.68;100.00;98983.70;4231870;82;28647;-83
2020/12/23 13:57:30;;;;;;;16.93;10.25;;;;;;;8.60;100.00;98971.41;4324439;81;28571;-83
2020/12/23 14:03:32;;;;;;;17.25;10.45;;;;;;;8.62;100.00;98977.37;4350033;80;28607;-83
2020/12/23 14:09:34;;;;;;;17.60;10.72;;;;;;;8.71;100.00;98965.33;4352445;81;28617;-82
2020/12/23 14:15:38;;;;;;;20.45;11.50;;;;;;;8.65;100.00;98971.59;4341422;80;28611;-82
2020/12/23 14:21:40;;;;;;;20.88;12.78;;;;;;;8.74;100.00;98965.41;4202455;84;28667;-83
2020/12/23 14:27:44;;;;;;;24.52;13.45;;;;;;;8.44;100.00;98974.09;4196664;84;28549;-84
2020/12/23 14:33:46;;;;;;;20.57;12.15;;;;;;;8.49;100.00;98976.95;4179384;84;28589;-85
2020/12/23 14:39:50;;;;;;;17.85;10.38;;;;;;;8.25;100.00;98971.34;4115353;84;28628;-86
2020/12/23 14:45:54;;;;;;;19.42;11.85;;;;;;;8.08;100.00;98979.92;4187401;84;28582;-84
2020/12/23 14:52:03;;;;;;;20.20;11.80;;;;;;;8.14;100.00;98969.37;4183982;84;28605;-81
2020/12/23 14:58:07;;;;;;;24.15;13.60;;;;;;;8.14;100.00;98964.02;4186358;83;28562;-83
2020/12/23 15:04:14;;;;;;;21.97;13.03;;;;;;;8.20;100.00;98956.46;4183881;83;28572;-83
2020/12/23 15:10:24;;;;;;;18.25;11.03;;;;;;;8.22;100.00;98955.72;4167408;84;28589;-81
2020/12/23 15:16:43;;;;;;;17.92;11.50;;;;;;;8.03;100.00;98960.99;4176223;84;28629;-85
2020/12/23 15:22:46;;;;;;;21.85;12.93;;;;;;;7.85;100.00;98962.23;4199434;84;28609;-88
2020/12/23 15:28:49;;;;;;;20.45;11.80;;;;;;;7.84;100.00;98973.98;4186964;84;28618;-85
2020/12/23 15:34:52;;;;;;;19.35;10.93;;;;;;;7.72;100.00;98967.97;4207045;84;28647;-85
2020/12/23 15:40:56;;;;;;;19.62;12.05;;;;;;;7.86;100.00;98959.86;4249843;83;28608;-81
2020/12/23 15:46:59;;;;;;;18.80;11.70;;;;;;;7.85;100.00;98951.53;4214634;82;28586;-85
2020/12/23 15:53:01;;;;;;;19.05;12.98;;;;;;;7.77;100.00;98952.61;4189140;83;28653;-82
2020/12/23 15:59:04;;;;;;;22.98;12.82;;;;;;;7.64;100.00;98954.83;4201836;84;28616;-86
2020/12/23 16:05:06;;;;;;;94.37;18.42;;;;;;;7.79;100.00;98954.05;4195274;84;29014;-86
2020/12/23 16:11:08;;;;;;;56.70;15.05;;;;;;;7.90;100.00;98949.84;4189195;84;28671;-85
2020/12/23 16:17:10;;;;;;;29.57;12.82;;;;;;;7.94;100.00;98948.90;4195211;84;28547;-87
2020/12/23 16:23:12;;;;;;;31.40;14.35;;;;;;;8.08;100.00;98938.92;4202096;84;28632;-90
2020/12/23 16:29:16;;;;;;;24.45;11.57;;;;;;;8.19;100.00;98932.06;4193336;83;28585;-88
2020/12/23 16:35:20;;;;;;;22.20;11.27;;;;;;;7.84;100.00;98931.98;4182996;82;28580;-87
2020/12/23 16:41:26;;;;;;;19.48;10.15;;;;;;;7.67;100.00;98915.09;4285494;82;28562;-82
2020/12/23 16:47:28;;;;;;;22.30;11.60;;;;;;;7.47;100.00;98911.20;4280728;82;28582;-90
2020/12/23 16:53:30;;;;;;;24.50;13.95;;;;;;;7.44;100.00;98911.61;4260680;82;28643;-87
2020/12/23 16:59:33;;;;;;;27.48;13.70;;;;;;;7.57;100.00;98896.55;4274978;82;28553;-86
2020/12/23 17:05:35;;;;;;;22.42;12.28;;;;;;;7.64;100.00;98877.23;4269938;82;28548;-88
2020/12/23 17:11:37;;;;;;;19.42;11.75;;;;;;;7.49;100.00;98886.89;4278595;82;28572;-82
2020/12/23 17:17:39;;;;;;;22.67;12.23;;;;;;;7.50;100.00;98889.90;4249119;82;28622;-83
2020/12/23 17:23:41;;;;;;;22.95;11.97;;;;;;;7.75;100.00;98877.08;4332211;80;28628;-85
2020/12/23 17:29:43;;;;;;;22.98;12.98;;;;;;;7.77;100.00;98885.20;4332022;81;28599;-85
2020/12/23 17:35:47;;;;;;;32.30;17.50;;;;;;;8.03;100.00;98871.30;4320739;80;28616;-83
2020/12/23 17:41:50;;;;;;;37.30;18.32;;;;;;;7.99;100.00;98863.92;4320871;80;28667;-85
2020/12/23 17:47:52;;;;;;;43.92;21.00;;;;;;;7.84;100.00;98862.90;4152510;84;28601;-90
2020/12/23 17:53:57;;;;;;;47.93;23.98;;;;;;;7.88;100.00;98867.60;4206483;84;28551;-87
2020/12/23 17:59:59;;;;;;;50.40;26.42;;;;;;;7.87;100.00;98855.80;4236042;83;28612;-84
2020/12/23 18:06:12;;;;;;;55.80;28.30;;;;;;;7.83;100.00;98858.59;4376049;79;85106;-83
2020/12/23 18:12:15;;;;;;;58.38;30.57;;;;;;;7.71;100.00;98843.77;4327130;80;28578;-83
2020/12/23 18:18:18;;;;;;;54.35;28.20;;;;;;;7.78;100.00;98853.38;4307443;81;28595;-85
2020/12/23 18:24:20;;;;;;;62.65;31.15;;;;;;;7.62;100.00;98849.38;4321443;80;28597;-84
2020/12/23 18:30:22;;;;;;;61.00;31.52;;;;;;;7.68;100.00;98849.83;4325438;80;28928;-89
2020/12/23 18:36:24;;;;;;;62.98;32.50;;;;;;;7.84;100.00;98837.47;4324505;80;28546;-84
2020/12/23 18:42:26;;;;;;;58.28;30.60;;;;;;;7.65;100.00;98845.42;4323858;80;28587;-85
2020/12/23 18:48:28;;;;;;;66.45;32.20;;;;;;;7.83;100.00;98843.87;4310979;80;28576;-83
2020/12/23 18:54:30;;;;;;;83.52;34.90;;;;;;;7.75;100.00;98842.28;4321717;80;28611;-85
2020/12/23 19:00:33;;;;;;;72.20;34.48;;;;;;;7.65;100.00;98843.58;4311633;80;28627;-85
2020/12/23 19:06:35;;;;;;;66.12;31.97;;;;;;;7.46;100.00;98834.66;4324220;80;28619;-84
2020/12/23 19:12:44;;;;;;;60.65;30.52;;;;;;;7.64;100.00;98817.86;4320802;80;28571;-85
2020/12/23 19:18:46;;;;;;;60.15;31.20;;;;;;;7.61;100.00;98814.80;4321508;80;28577;-85
2020/12/23 19:24:48;;;;;;;58.40;31.68;;;;;;;7.66;100.00;98794.91;4318215;80;28572;-84
2020/12/23 19:30:51;;;;;;;71.33;36.60;;;;;;;7.51;100.00;98788.00;4310459;80;28611;-84
2020/12/23 19:36:55;;;;;;;73.20;35.03;;;;;;;7.24;100.00;98781.52;4312549;80;28553;-86
2020/12/23 19:43:03;;;;;;;67.27;34.48;;;;;;;7.23;100.00;98757.13;4291760;80;28617;-84
2020/12/23 19:49:06;;;;;;;60.25;30.05;;;;;;;7.25;100.00;98743.05;4316325;80;28576;-87
2020/12/23 19:55:08;;;;;;;55.92;29.77;;;;;;;7.14;100.00;98753.09;4363615;81;28644;-83
2020/12/23 20:01:11;;;;;;;64.77;31.37;;;;;;;7.23;100.00;98741.08;4313439;81;28581;-86
2020/12/23 20:07:14;;;;;;;69.32;34.03;;;;;;;7.15;100.00;98743.20;4314821;82;28570;-85
2020/12/23 20:13:16;;;;;;;74.80;35.05;;;;;;;7.06;100.00;98738.64;4314539;82;28586;-84
2020/12/23 20:19:22;;;;;;;59.70;30.23;;;;;;;6.96;100.00;98739.09;4316335;82;28576;-86
2020/12/23 20:25:24;;;;;;;61.40;29.25;;;;;;;6.84;100.00;98721.61;4325972;82;28615;-86
2020/12/23 20:31:26;;;;;;;59.45;29.50;;;;;;;6.81;100.00;98712.66;4332242;80;28551;-87
2020/12/23 20:37:28;;;;;;;57.98;28.25;;;;;;;6.87;100.00;98696.28;4364973;82;28593;-85
2020/12/23 20:43:30;;;;;;;66.85;32.23;;;;;;;6.74;100.00;98685.19;4364334;81;28597;-87
2020/12/23 20:49:34;;;;;;;70.87;34.27;;;;;;;6.62;100.00;98671.67;4308808;82;28586;-88
2020/12/23 20:55:38;;;;;;;57.93;31.33;;;;;;;6.53;100.00;98683.14;4318007;82;28678;-81
2020/12/23 21:01:41;;;;;;;62.98;29.32;;;;;;;6.38;100.00;98688.75;4259741;81;28607;-88
2020/12/23 21:07:44;;;;;;;50.88;26.95;;;;;;;6.33;100.00;98689.39;4323582;82;28548;-87
2020/12/23 21:13:46;;;;;;;56.58;29.07;;;;;;;6.35;100.00;98687.83;4309428;82;28581;-90
2020/12/23 21:19:50;;;;;;;55.08;27.27;;;;;;;6.29;100.00;98673.47;4314024;82;28580;-80
2020/12/23 21:25:52;;;;;;;45.45;24.30;;;;;;;6.19;100.00;98647.74;4319673;80;28583;-86
2020/12/23 21:31:58;;;;;;;56.50;25.20;;;;;;;6.14;100.00;98633.70;4317378;80;28602;-84
2020/12/23 21:38:01;;;;;;;59.98;26.17;;;;;;;5.94;100.00;98625.75;4324179;80;28585;-83
2020/12/23 21:44:06;;;;;;;52.65;24.90;;;;;;;5.71;100.00;98615.05;4292833;82;28542;-82
2020/12/23 21:50:11;;;;;;;49.33;24.03;;;;;;;5.78;100.00;98601.69;4319957;82;28553;-81
2020/12/23 21:56:13;;;;;;;46.73;23.73;;;;;;;5.66;100.00;98602.84;4317208;80;28565;-81
2020/12/23 22:02:15;;;;;;;50.78;24.10;;;;;;;5.70;100.00;98593.41;4323626;80;28620;-80
2020/12/23 22:08:17;;;;;;;51.35;25.72;;;;;;;5.62;100.00;98578.44;4328086;81;28638;-82
2020/12/23 22:14:20;;;;;;;68.17;27.90;;;;;;;5.54;100.00;98565.36;4327643;80;28622;-80
2020/12/23 22:20:26;;;;;;;52.78;25.27;;;;;;;5.47;100.00;98541.38;4247043;81;28545;-79
2020/12/23 22:26:32;;;;;;;44.55;22.37;;;;;;;5.39;100.00;98537.08;4327579;81;28639;-80
2020/12/23 22:32:37;;;;;;;44.63;22.60;;;;;;;5.33;100.00;98531.27;4287609;81;28626;-79
2020/12/23 22:38:39;;;;;;;51.05;23.60;;;;;;;5.25;100.00;98520.30;4337401;81;28610;-80
2020/12/23 22:44:42;;;;;;;47.27;22.93;;;;;;;5.28;100.00;98505.73;4328150;81;28572;-79
2020/12/23 22:50:46;;;;;;;51.50;24.47;;;;;;;5.34;100.00;98505.41;4322951;80;28608;-80
2020/12/23 22:56:54;;;;;;;42.55;20.82;;;;;;;5.44;100.00;98493.79;4327984;81;28570;-81
2020/12/23 23:02:56;;;;;;;40.85;20.50;;;;;;;5.44;100.00;98489.79;4323729;80;28670;-81
2020/12/23 23:08:58;;;;;;;47.15;23.87;;;;;;;5.56;100.00;98496.09;4350180;81;28595;-79
2020/12/23 23:15:00;;;;;;;46.80;24.87;;;;;;;5.55;100.00;98489.66;4329837;81;28561;-80
2020/12/23 23:21:05;;;;;;;39.55;20.95;;;;;;;5.43;100.00;98478.83;4346616;81;28621;-78
2020/12/23 23:27:08;;;;;;;35.78;19.52;;;;;;;5.46;100.00;98477.59;4332117;81;28571;-79
2020/12/23 23:33:10;;;;;;;32.67;17.92;;;;;;;5.48;100.00;98463.03;4305883;81;28599;-77
2020/12/23 23:39:12;;;;;;;34.35;18.70;;;;;;;5.61;100.00;98449.32;4336177;81;28556;-79
2020/12/23 23:45:17;;;;;;;33.98;18.82;;;;;;;5.67;100.00;98429.78;4343334;81;28586;-78
2020/12/23 23:51:21;;;;;;;35.98;19.07;;;;;;;5.63;100.00;98428.58;4327954;81;28571;-77
2020/12/23 23:57:23;;;;;;;36.00;20.88;;;;;;;5.67;100.00;98416.45;4339405;81;28601;-79
